Time;durP1;ratioP1;P1;durP2;ratioP2;P2;SDS_P1;SDS_P2;PMS_P1;PMS_P2;Temp;Humidity;BMP_temperature;BMP_pressure;BME280_temperature;BME280_humidity;BME280_pressure;Samples;Min_cycle;Max_cycle;Signal;HPM_P1;HPM_P2
2021/05/11 00:01:41;;;;;;;0.38;0.28;;;12.00;99.90;;;;;;5077879;28;20107;-90
2021/05/11 00:04:07;;;;;;;0.10;0.10;;;11.80;99.90;;;;;;5067898;28;20024;-90
2021/05/11 00:06:33;;;;;;;0.08;0.08;;;11.80;99.90;;;;;;5060710;28;20036;-88
2021/05/11 00:08:59;;;;;;;0.10;0.10;;;11.80;99.90;;;;;;5066380;28;20428;-89
2021/05/11 00:11:25;;;;;;;0.00;0.00;;;11.70;99.90;;;;;;5061442;28;20040;-89
2021/05/11 00:13:50;;;;;;;0.40;0.30;;;11.70;99.90;;;;;;5066922;28;20055;-89
2021/05/11 00:16:17;;;;;;;0.10;0.10;;;11.70;99.90;;;;;;5082608;28;20067;-90
2021/05/11 00:18:42;;;;;;;0.10;0.10;;;11.70;99.90;;;;;;5071513;28;20016;-89
2021/05/11 00:21:08;;;;;;;0.10;0.10;;;11.70;99.90;;;;;;5082411;28;20050;-90
2021/05/11 00:23:34;;;;;;;0.10;0.10;;;11.70;99.90;;;;;;5086475;28;20107;-88
2021/05/11 00:26:00;;;;;;;0.00;0.00;;;11.60;99.90;;;;;;5075154;28;20035;-89
2021/05/11 00:28:26;;;;;;;0.10;0.10;;;11.60;99.90;;;;;;5089488;28;20123;-90
2021/05/11 00:30:53;;;;;;;0.20;0.20;;;11.60;99.90;;;;;;5070203;28;20035;-89
2021/05/11 00:33:18;;;;;;;;;;;11.50;99.90;;;;;;5061321;28;20029;-90
2021/05/11 00:35:44;;;;;;;0.10;0.10;;;11.50;99.90;;;;;;5067942;28;19919;-90
2021/05/11 00:38:10;;;;;;;0.10;0.10;;;11.50;99.90;;;;;;5085646;28;20031;-91
2021/05/11 00:40:36;;;;;;;0.10;0.10;;;11.50;99.90;;;;;;5079060;28;20046;-91
2021/05/11 00:43:01;;;;;;;0.10;0.10;;;11.40;99.90;;;;;;5084990;28;20020;-90
2021/05/11 00:45:27;;;;;;;0.10;0.10;;;11.50;99.90;;;;;;5070058;28;20079;-92
2021/05/11 00:47:53;;;;;;;0.20;0.20;;;11.20;99.90;;;;;;5073285;28;20093;-91
2021/05/11 00:50:23;;;;;;;0.00;0.00;;;11.00;99.90;;;;;;5075237;28;20085;-91
2021/05/11 00:52:56;;;;;;;0.10;0.10;;;10.80;99.90;;;;;;5085984;28;20521;-90
2021/05/11 00:55:22;;;;;;;0.08;0.08;;;10.80;99.90;;;;;;5064495;28;20052;-90
2021/05/11 00:57:48;;;;;;;0.20;0.20;;;10.80;99.90;;;;;;5069018;28;20052;-90
2021/05/11 01:00:15;;;;;;;0.00;0.00;;;10.60;99.90;;;;;;5069837;28;20559;-90
2021/05/11 01:02:41;;;;;;;0.20;0.20;;;10.50;99.90;;;;;;5051604;28;20481;-89
2021/05/11 01:05:07;;;;;;;0.00;0.00;;;10.40;99.90;;;;;;5081025;28;20032;-90
2021/05/11 01:07:33;;;;;;;0.68;0.68;;;10.20;99.90;;;;;;5085025;28;20628;-90
2021/05/11 01:09:59;;;;;;;0.10;0.10;;;10.20;99.90;;;;;;5088540;28;20051;-91
2021/05/11 01:12:26;;;;;;;0.00;0.00;;;10.10;99.90;;;;;;5092930;28;20278;-92
2021/05/11 01:14:52;;;;;;;0.00;0.00;;;10.20;99.90;;;;;;5087739;28;20031;-91
2021/05/11 01:17:28;;;;;;;0.00;0.00;;;10.20;99.90;;;;;;5072888;28;20040;-90
2021/05/11 01:19:59;;;;;;;0.15;0.15;;;10.20;99.90;;;;;;5073198;28;20028;-91
2021/05/11 01:24:58;;;;;;;0.10;0.10;;;10.40;99.90;;;;;;5084749;28;20024;-90
2021/05/11 01:46:38;;;;;;;0.10;0.10;;;10.70;99.90;;;;;;5074080;28;20031;-90
2021/05/11 01:49:19;;;;;;;0.00;0.00;;;10.60;99.90;;;;;;5084837;28;20037;-90
2021/05/11 01:54:45;;;;;;;3.72;1.10;;;10.40;99.90;;;;;;5084748;28;20043;-92
2021/05/11 02:24:20;;;;;;;0.60;0.38;;;10.10;99.90;;;;;;5088931;28;20030;-90
2021/05/11 02:26:45;;;;;;;0.00;0.00;;;10.10;99.90;;;;;;5091169;28;20107;-91
2021/05/11 02:29:11;;;;;;;0.10;0.10;;;10.20;99.90;;;;;;5091168;28;20028;-90
2021/05/11 02:31:37;;;;;;;0.10;0.10;;;10.10;99.90;;;;;;5089053;28;20111;-92
2021/05/11 02:34:03;;;;;;;0.00;0.00;;;10.10;99.90;;;;;;5085814;28;20028;-92
2021/05/11 02:36:34;;;;;;;0.25;0.25;;;10.20;99.90;;;;;;5084690;28;20104;-92
2021/05/11 02:39:00;;;;;;;0.08;0.08;;;10.10;99.90;;;;;;5092039;28;20024;-92
2021/05/11 02:41:26;;;;;;;0.15;0.15;;;10.10;99.90;;;;;;5093611;28;20020;-91
2021/05/11 02:43:52;;;;;;;0.10;0.10;;;10.20;99.90;;;;;;5086923;28;20096;-91
2021/05/11 02:46:18;;;;;;;0.00;0.00;;;10.20;99.90;;;;;;5073631;28;20024;-92
2021/05/11 02:48:43;;;;;;;0.10;0.10;;;10.20;99.90;;;;;;5075964;28;20134;-91
2021/05/11 02:51:09;;;;;;;0.52;0.52;;;12.50;99.90;;;;;;5078818;28;20515;-91
2021/05/11 02:53:35;;;;;;;0.10;0.10;;;12.80;99.90;;;;;;5072560;28;20423;-92
2021/05/11 02:56:00;;;;;;;0.10;0.10;;;12.90;99.90;;;;;;5074120;28;20029;-92
2021/05/11 02:58:27;;;;;;;0.00;0.00;;;13.10;99.90;;;;;;5073557;28;20117;-92
2021/05/11 03:00:53;;;;;;;0.40;0.30;;;12.20;99.90;;;;;;5073895;28;20025;-92
2021/05/11 03:03:18;;;;;;;0.00;0.00;;;11.60;99.90;;;;;;5074158;28;20492;-92
2021/05/11 03:05:44;;;;;;;0.10;0.10;;;11.80;99.90;;;;;;5073780;28;20024;-92
2021/05/11 03:08:13;;;;;;;0.15;0.15;;;11.80;99.90;;;;;;5073136;28;20040;-91
2021/05/11 03:10:39;;;;;;;0.00;0.00;;;11.60;99.90;;;;;;5072991;28;20060;-91
2021/05/11 03:13:04;;;;;;;0.17;0.17;;;11.60;99.90;;;;;;5071656;28;20025;-91
2021/05/11 03:15:30;;;;;;;0.20;0.20;;;11.60;99.90;;;;;;5077740;28;20032;-91
2021/05/11 03:17:56;;;;;;;0.08;0.08;;;11.90;99.90;;;;;;5072736;28;20138;-91
2021/05/11 03:20:22;;;;;;;0.10;0.10;;;11.70;99.90;;;;;;5079293;28;20024;-90
2021/05/11 03:22:47;;;;;;;0.00;0.00;;;11.60;99.90;;;;;;5076136;28;20025;-91
2021/05/11 03:25:13;;;;;;;0.00;0.00;;;11.60;99.90;;;;;;5090144;28;20502;-90
2021/05/11 03:27:39;;;;;;;0.25;0.25;;;11.60;99.90;;;;;;5067246;28;20020;-91
2021/05/11 03:30:05;;;;;;;0.00;0.00;;;11.80;99.90;;;;;;5089556;28;20017;-92
2021/05/11 03:32:32;;;;;;;0.00;0.00;;;11.80;99.90;;;;;;5071815;28;20492;-90
2021/05/11 03:34:58;;;;;;;0.00;0.00;;;11.80;99.90;;;;;;5083635;28;20489;-90
2021/05/11 03:37:24;;;;;;;0.00;0.00;;;11.80;99.90;;;;;;5092844;28;20028;-91
2021/05/11 03:40:06;;;;;;;0.43;0.43;;;11.80;99.90;;;;;;5093891;28;20016;-90
2021/05/11 03:43:01;;;;;;;0.08;0.08;;;11.80;99.90;;;;;;5090172;28;20036;-91
2021/05/11 03:45:37;;;;;;;0.00;0.00;;;11.90;99.90;;;;;;5075775;28;20025;-91
2021/05/11 03:48:03;;;;;;;0.00;0.00;;;11.90;99.90;;;;;;5090258;28;20031;-90
2021/05/11 03:50:29;;;;;;;0.40;0.40;;;11.90;99.90;;;;;;5087762;28;20039;-90
2021/05/11 03:52:55;;;;;;;0.10;0.10;;;11.90;99.90;;;;;;5082087;28;20031;-91
2021/05/11 03:55:21;;;;;;;0.10;0.10;;;12.00;99.90;;;;;;5071724;28;20033;-91
2021/05/11 03:57:47;;;;;;;0.10;0.10;;;12.00;99.90;;;;;;5072011;28;20025;-92
2021/05/11 04:00:16;;;;;;;0.00;0.00;;;12.10;99.90;;;;;;5091256;28;20016;-91
2021/05/11 04:02:42;;;;;;;0.00;0.00;;;12.00;99.90;;;;;;5052245;28;20033;-90
2021/05/11 04:05:10;;;;;;;0.00;0.00;;;12.10;99.90;;;;;;5069927;28;20051;-91
2021/05/11 04:07:38;;;;;;;0.10;0.10;;;12.10;99.90;;;;;;5080219;28;20111;-92
2021/05/11 04:10:51;;;;;;;0.10;0.10;;;12.00;99.90;;;;;;5072514;28;20044;-92
2021/05/11 04:13:32;;;;;;;0.10;0.10;;;12.00;99.90;;;;;;5070469;28;20403;-92
2021/05/11 04:16:15;;;;;;;0.00;0.00;;;12.00;99.90;;;;;;5072120;28;20086;-92
2021/05/11 04:18:40;;;;;;;0.32;0.32;;;12.10;99.90;;;;;;5072379;28;20054;-91
2021/05/11 04:21:06;;;;;;;0.25;0.25;;;12.10;99.90;;;;;;5071347;28;20028;-92
2021/05/11 04:23:32;;;;;;;0.05;0.05;;;12.00;99.90;;;;;;5071456;28;20384;-90
2021/05/11 04:25:59;;;;;;;0.10;0.10;;;12.10;99.90;;;;;;5070942;28;20032;-92
2021/05/11 04:28:25;;;;;;;0.20;0.20;;;12.10;99.90;;;;;;5072234;28;20056;-91
2021/05/11 04:30:58;;;;;;;0.00;0.00;;;12.20;99.90;;;;;;5072276;28;20507;-92
2021/05/11 04:33:27;;;;;;;0.10;0.10;;;12.20;99.90;;;;;;5072013;28;20024;-91
2021/05/11 04:35:53;;;;;;;0.10;0.10;;;12.20;99.90;;;;;;5073168;28;20024;-91
2021/05/11 04:38:20;;;;;;;0.35;0.20;;;12.30;99.90;;;;;;5071978;28;20085;-91
2021/05/11 04:40:45;;;;;;;0.00;0.00;;;12.20;99.90;;;;;;5083124;28;20017;-93
2021/05/11 04:43:11;;;;;;;0.00;0.00;;;12.10;99.90;;;;;;5072674;28;20032;-92
2021/05/11 04:45:37;;;;;;;0.13;0.13;;;12.20;99.90;;;;;;5075397;28;20032;-90
2021/05/11 04:48:03;;;;;;;0.20;0.15;;;12.20;99.90;;;;;;5082233;28;20128;-89
2021/05/11 04:50:29;;;;;;;0.05;0.05;;;12.10;99.90;;;;;;5086504;28;20036;-91
2021/05/11 04:52:57;;;;;;;0.00;0.00;;;12.10;99.90;;;;;;5089089;28;20162;-90
2021/05/11 04:55:23;;;;;;;0.00;0.00;;;12.10;99.90;;;;;;5087899;28;20074;-90
2021/05/11 04:57:49;;;;;;;0.20;0.10;;;12.10;99.90;;;;;;5093696;28;20480;-91
2021/05/11 05:00:28;;;;;;;0.30;0.30;;;11.90;99.90;;;;;;5062634;28;21184;-90
2021/05/11 05:03:06;;;;;;;0.32;0.32;;;11.80;99.90;;;;;;5086433;28;20286;-88
2021/05/11 05:05:32;;;;;;;0.20;0.20;;;11.80;99.90;;;;;;5071374;28;20025;-89
2021/05/11 05:08:00;;;;;;;0.47;0.47;;;11.80;99.90;;;;;;5078754;28;20059;-88
2021/05/11 05:10:26;;;;;;;0.00;0.00;;;11.70;99.90;;;;;;5085066;28;20075;-89
2021/05/11 05:12:52;;;;;;;0.20;0.20;;;11.70;99.90;;;;;;5071661;28;20481;-89
2021/05/11 05:15:21;;;;;;;0.10;0.10;;;11.80;99.90;;;;;;5076353;28;20573;-88
2021/05/11 05:17:47;;;;;;;0.10;0.10;;;11.80;99.90;;;;;;5075622;28;20021;-87
2021/05/11 05:20:14;;;;;;;0.10;0.10;;;11.80;99.90;;;;;;5068004;28;20021;-87
2021/05/11 05:22:42;;;;;;;0.00;0.00;;;11.80;99.90;;;;;;5069729;28;20033;-86
2021/05/11 05:25:15;;;;;;;0.00;0.00;;;11.80;99.90;;;;;;5062515;28;20027;-89
2021/05/11 05:27:58;;;;;;;0.00;0.00;;;11.80;99.90;;;;;;5080289;28;20027;-86
2021/05/11 05:30:24;;;;;;;0.00;0.00;;;11.80;99.90;;;;;;5073606;28;20025;-87
2021/05/11 05:32:53;;;;;;;0.00;0.00;;;11.80;99.90;;;;;;5085218;28;20028;-89
2021/05/11 05:35:19;;;;;;;0.00;0.00;;;11.70;99.90;;;;;;5092219;28;20038;-88
2021/05/11 05:37:46;;;;;;;0.20;0.20;;;11.80;99.90;;;;;;5075976;28;20024;-90
2021/05/11 05:40:13;;;;;;;0.00;0.00;;;11.70;99.90;;;;;;5073184;28;20044;-88
2021/05/11 05:42:39;;;;;;;;;;;11.70;99.90;;;;;;5063949;28;20139;-89
2021/05/11 05:45:05;;;;;;;0.00;0.00;;;11.60;99.90;;;;;;5069854;28;20015;-89
2021/05/11 05:47:31;;;;;;;0.43;0.43;;;11.70;99.90;;;;;;5084017;28;20043;-88
2021/05/11 05:50:07;;;;;;;0.03;0.03;;;11.70;99.90;;;;;;5080123;28;20025;-88
2021/05/11 05:52:36;;;;;;;0.00;0.00;;;11.70;99.90;;;;;;5068756;28;20108;-89
2021/05/11 05:55:03;;;;;;;0.30;0.30;;;11.60;99.90;;;;;;5061876;28;20503;-89
2021/05/11 05:57:29;;;;;;;0.35;0.28;;;11.60;99.90;;;;;;5071413;28;20044;-88
2021/05/11 05:59:55;;;;;;;0.05;0.05;;;11.60;99.90;;;;;;5085054;28;20464;-88
2021/05/11 06:02:23;;;;;;;0.20;0.20;;;11.50;99.90;;;;;;5066870;28;20029;-88
2021/05/11 06:04:49;;;;;;;0.20;0.20;;;11.50;99.90;;;;;;5074190;28;20028;-88
2021/05/11 06:07:15;;;;;;;0.43;0.43;;;11.50;99.90;;;;;;5072262;28;20106;-87
2021/05/11 06:09:41;;;;;;;0.32;0.32;;;11.40;99.90;;;;;;5078974;28;20169;-88
2021/05/11 06:12:20;;;;;;;0.52;0.40;;;11.50;99.90;;;;;;5080418;28;20107;-88
2021/05/11 06:17:27;;;;;;;0.00;0.00;;;11.50;99.90;;;;;;5079790;28;20028;-88
2021/05/11 06:19:54;;;;;;;0.00;0.00;;;11.50;99.90;;;;;;5086758;28;20024;-88
2021/05/11 06:22:45;;;;;;;0.00;0.00;;;11.60;99.90;;;;;;5084658;28;20021;-88
2021/05/11 06:25:11;;;;;;;4.43;1.45;;;11.50;99.90;;;;;;5078912;28;20017;-88
2021/05/11 06:27:37;;;;;;;0.00;0.00;;;11.50;99.90;;;;;;5086131;28;20073;-89
2021/05/11 06:30:03;;;;;;;0.63;0.63;;;11.60;99.90;;;;;;5078671;28;20029;-90
2021/05/11 06:32:29;;;;;;;0.00;0.00;;;11.60;99.90;;;;;;5073644;28;20024;-88
2021/05/11 06:35:00;;;;;;;0.93;0.82;;;11.50;99.90;;;;;;5074069;28;20082;-89
2021/05/11 06:37:26;;;;;;;1.08;0.75;;;11.70;99.90;;;;;;5073154;28;20055;-88
2021/05/11 06:39:58;;;;;;;0.10;0.10;;;11.80;99.90;;;;;;5064532;28;20075;-88
2021/05/11 06:42:28;;;;;;;0.03;0.03;;;11.90;99.90;;;;;;5061077;28;20500;-89
2021/05/11 06:54:59;;;;;;;0.20;0.20;;;11.80;99.90;;;;;;5074831;28;20513;-90
2021/05/11 06:57:26;;;;;;;0.00;0.00;;;11.70;99.90;;;;;;5072309;28;20032;-90
2021/05/11 06:59:56;;;;;;;0.00;0.00;;;11.70;99.90;;;;;;5085553;28;20023;-90
2021/05/11 07:02:24;;;;;;;0.70;0.52;;;11.70;99.90;;;;;;5082719;28;20025;-90
2021/05/11 07:04:53;;;;;;;0.17;0.17;;;11.80;99.90;;;;;;5078096;28;20111;-90
2021/05/11 07:07:21;;;;;;;1.77;0.85;;;12.00;99.90;;;;;;5071250;28;20115;-90
2021/05/11 07:14:59;;;;;;;0.05;0.05;;;12.20;99.90;;;;;;5077614;28;20042;-90
2021/05/11 07:17:26;;;;;;;0.00;0.00;;;12.50;99.90;;;;;;5073080;28;20161;-90
2021/05/11 07:19:52;;;;;;;0.10;0.10;;;12.30;99.90;;;;;;5079995;28;20032;-89
2021/05/11 07:22:19;;;;;;;0.08;0.08;;;12.20;99.90;;;;;;5071371;28;20128;-89
2021/05/11 07:24:54;;;;;;;0.10;0.10;;;12.30;99.90;;;;;;5067710;28;20115;-90
2021/05/11 07:29:57;;;;;;;0.10;0.10;;;12.50;99.90;;;;;;5072036;28;20527;-90
2021/05/11 07:32:23;;;;;;;0.10;0.10;;;12.40;99.90;;;;;;5073705;28;20046;-89
2021/05/11 07:34:53;;;;;;;0.10;0.10;;;12.20;99.90;;;;;;5059914;28;20036;-90
2021/05/11 07:37:19;;;;;;;0.00;0.00;;;12.00;99.90;;;;;;5066572;28;20032;-89
2021/05/11 07:39:45;;;;;;;0.00;0.00;;;12.30;99.90;;;;;;5074911;28;20046;-89
2021/05/11 07:42:12;;;;;;;0.20;0.20;;;12.10;99.90;;;;;;5065502;28;20474;-89
2021/05/11 07:44:44;;;;;;;0.00;0.00;;;12.30;99.90;;;;;;5060640;28;20021;-89
2021/05/11 07:47:20;;;;;;;0.60;0.40;;;12.40;99.90;;;;;;5063017;28;20082;-90
2021/05/11 08:05:41;;;;;;;0.00;0.00;;;14.40;99.90;;;;;;5074276;28;20028;-90
2021/05/11 08:16:08;;;;;;;0.00;0.00;;;15.30;99.90;;;;;;5059948;28;20057;-90
2021/05/11 08:29:21;;;;;;;0.52;0.30;;;14.40;99.90;;;;;;5071161;28;20035;-91
2021/05/11 08:31:48;;;;;;;0.00;0.00;;;14.30;99.90;;;;;;5068179;28;20032;-90
2021/05/11 08:34:14;;;;;;;0.10;0.10;;;14.20;99.90;;;;;;5076415;28;20503;-90
2021/05/11 08:36:40;;;;;;;0.10;0.10;;;14.60;99.90;;;;;;5066802;28;20020;-90
2021/05/11 08:39:06;;;;;;;2.23;0.83;;;15.30;99.90;;;;;;5076184;28;20517;-91
2021/05/11 08:41:32;;;;;;;0.00;0.00;;;15.40;99.90;;;;;;5080117;28;20025;-90
2021/05/11 08:43:57;;;;;;;0.20;0.20;;;14.50;99.90;;;;;;5081844;28;20047;-90
2021/05/11 08:46:24;;;;;;;0.43;0.43;;;14.10;99.90;;;;;;5072458;28;20037;-90
2021/05/11 08:48:52;;;;;;;;;;;13.70;99.90;;;;;;5069991;28;20025;-90
2021/05/11 09:23:33;;;;;;;1.33;0.50;;;14.40;99.90;;;;;;5044887;28;20504;-91
2021/05/11 09:27:24;;;;;;;0.00;0.00;;;16.20;99.90;;;;;;5030216;28;20033;-91
2021/05/11 10:10:32;;;;;;;0.00;0.00;;;14.60;99.90;;;;;;5035820;28;20519;-91
2021/05/11 10:37:28;;;;;;;0.55;0.35;;;14.00;99.90;;;;;;5065911;28;20698;-91
2021/05/11 10:43:48;;;;;;;0.10;0.10;;;12.00;99.90;;;;;;5082005;28;20070;-90
2021/05/11 10:48:18;;;;;;;0.10;0.10;;;10.80;72.50;;;;;;5075957;28;20020;-90
2021/05/11 10:51:03;;;;;;;0.10;0.10;;;11.10;99.90;;;;;;5069395;28;20024;-90
2021/05/11 10:53:48;;;;;;;0.00;0.00;;;11.60;99.90;;;;;;5080157;28;20021;-91
2021/05/11 10:56:28;;;;;;;0.10;0.10;;;12.70;84.50;;;;;;5065916;28;20037;-91
2021/05/11 11:04:43;;;;;;;0.10;0.10;;;15.00;99.90;;;;;;5075007;28;20028;-90
2021/05/11 11:07:09;;;;;;;0.00;0.00;;;14.70;99.90;;;;;;5070168;28;20043;-90
2021/05/11 11:09:38;;;;;;;0.10;0.10;;;14.10;99.90;;;;;;5071354;28;20518;-90
2021/05/11 11:12:09;;;;;;;0.15;0.15;;;13.60;99.90;;;;;;5070659;28;20408;-89
2021/05/11 11:14:36;;;;;;;0.10;0.10;;;13.60;99.90;;;;;;5065558;28;20032;-90
2021/05/11 11:17:13;;;;;;;0.10;0.10;;;13.10;99.90;;;;;;5071836;28;20619;-90
2021/05/11 11:19:39;;;;;;;0.20;0.20;;;12.90;99.90;;;;;;5079147;28;20037;-90
2021/05/11 11:24:57;;;;;;;0.10;0.10;;;11.80;99.90;;;;;;5066300;28;20032;-90
2021/05/11 11:27:24;;;;;;;0.10;0.10;;;11.70;99.90;;;;;;5070636;28;20071;-90
2021/05/11 11:30:00;;;;;;;1.50;0.52;;;11.60;99.90;;;;;;5077302;28;20028;-90
2021/05/11 11:32:27;;;;;;;0.10;0.10;;;11.90;99.90;;;;;;5070638;28;20550;-90
2021/05/11 11:34:58;;;;;;;0.10;0.10;;;12.20;99.90;;;;;;5079634;28;20041;-90
2021/05/11 11:37:26;;;;;;;0.10;0.10;;;12.40;99.90;;;;;;5060611;28;20016;-90
2021/05/11 11:39:54;;;;;;;0.10;0.10;;;12.80;99.90;;;;;;5067880;28;20131;-91
2021/05/11 11:42:22;;;;;;;0.85;0.45;;;13.00;99.90;;;;;;5065925;28;20020;-91
2021/05/11 11:44:54;;;;;;;0.55;0.45;;;13.60;99.90;;;;;;5055550;28;20055;-91
2021/05/11 11:47:22;;;;;;;0.00;0.00;;;13.60;99.90;;;;;;5062897;28;20016;-89
2021/05/11 11:49:50;;;;;;;0.00;0.00;;;13.70;99.90;;;;;;5074633;28;20511;-90
2021/05/11 12:00:22;;;;;;;0.10;0.10;;;13.80;99.90;;;;;;5062059;28;20075;-90
2021/05/11 12:02:55;;;;;;;0.47;0.47;;;13.40;99.90;;;;;;5084749;28;20045;-91
2021/05/11 12:05:23;;;;;;;0.10;0.10;;;13.90;99.90;;;;;;5069177;28;20560;-90
2021/05/11 12:08:19;;;;;;;0.00;0.00;;;14.70;99.90;;;;;;5086025;28;20032;-91
2021/05/11 12:10:52;;;;;;;;;;;14.90;99.90;;;;;;5077678;28;20054;-90
2021/05/11 12:13:31;;;;;;;0.20;0.20;;;14.20;99.90;;;;;;5063950;28;19934;-90
2021/05/11 12:16:20;;;;;;;0.10;0.10;;;13.70;99.90;;;;;;5076084;28;20806;-90
2021/05/11 12:19:16;;;;;;;0.10;0.10;;;13.40;99.90;;;;;;5073404;28;20024;-90
2021/05/11 12:21:54;;;;;;;0.73;0.73;;;13.20;99.90;;;;;;5070723;28;20020;-90
2021/05/11 12:24:28;;;;;;;0.00;0.00;;;13.10;99.90;;;;;;5057101;28;20029;-89
2021/05/11 12:27:10;;;;;;;0.35;0.25;;;12.80;99.90;;;;;;5057349;28;20106;-89
2021/05/11 12:29:58;;;;;;;0.00;0.00;;;12.20;99.90;;;;;;5059820;28;20031;-89
2021/05/11 12:32:23;;;;;;;0.10;0.10;;;12.00;99.90;;;;;;5065610;28;20570;-89
2021/05/11 12:35:15;;;;;;;0.10;0.10;;;12.10;99.90;;;;;;5082413;28;20024;-90
2021/05/11 12:37:49;;;;;;;0.20;0.20;;;12.60;99.90;;;;;;5071013;28;20028;-89
2021/05/11 12:40:30;;;;;;;0.10;0.10;;;13.10;99.90;;;;;;5059193;28;20028;-89
2021/05/11 12:42:59;;;;;;;0.10;0.10;;;13.50;99.90;;;;;;5059191;28;20033;-89
2021/05/11 12:45:25;;;;;;;0.00;0.00;;;14.00;99.90;;;;;;5059604;28;20055;-90
2021/05/11 12:47:53;;;;;;;0.08;0.08;;;13.70;99.90;;;;;;5080851;28;20031;-90
2021/05/11 12:50:28;;;;;;;0.00;0.00;;;13.40;99.90;;;;;;5086460;28;20036;-90
2021/05/11 12:52:57;;;;;;;0.30;0.30;;;13.20;99.90;;;;;;5064708;28;20063;-89
2021/05/11 13:01:47;;;;;;;0.03;0.03;;;12.40;99.90;;;;;;5083447;28;20159;-90
2021/05/11 13:26:06;;;;;;;0.10;0.10;;;14.70;99.90;;;;;;5057145;28;20403;-91
2021/05/11 13:28:48;;;;;;;0.00;0.00;;;15.00;99.90;;;;;;5064104;28;20396;-90
2021/05/11 13:36:47;;;;;;;0.38;0.38;;;15.20;99.90;;;;;;5022008;28;20025;-90
2021/05/11 13:39:13;;;;;;;0.10;0.10;;;14.70;99.90;;;;;;5029048;28;20051;-90
2021/05/11 13:41:41;;;;;;;0.28;0.22;;;14.40;99.90;;;;;;5027597;28;20108;-89
2021/05/11 13:44:07;;;;;;;0.00;0.00;;;14.50;99.90;;;;;;5010388;28;20145;-89
2021/05/11 13:46:34;;;;;;;0.17;0.17;;;14.20;99.90;;;;;;5014162;28;20017;-89
2021/05/11 13:49:00;;;;;;;1.27;0.40;;;14.00;99.90;;;;;;5022710;28;20037;-90
2021/05/11 13:51:26;;;;;;;6.53;0.55;;;14.00;99.90;;;;;;5027280;28;20645;-89
2021/05/11 13:53:57;;;;;;;0.05;0.05;;;14.00;99.90;;;;;;5035850;28;20156;-89
2021/05/11 14:04:16;;;;;;;0.00;0.00;;;15.30;99.90;;;;;;5030196;28;20118;-89
2021/05/11 14:06:42;;;;;;;0.10;0.10;;;15.20;99.90;;;;;;5030801;28;20208;-88
2021/05/11 14:09:08;;;;;;;0.10;0.10;;;15.10;99.90;;;;;;5019192;28;20032;-89
2021/05/11 14:11:35;;;;;;;1.60;0.77;;;15.50;99.90;;;;;;5069647;28;20059;-90
2021/05/11 14:14:01;;;;;;;0.35;0.35;;;15.70;99.90;;;;;;5073663;28;20035;-89
2021/05/11 14:16:27;;;;;;;0.20;0.20;;;15.70;99.90;;;;;;5082806;28;20023;-89
2021/05/11 14:18:53;;;;;;;0.10;0.10;;;15.40;99.90;;;;;;5073837;28;20152;-89
2021/05/11 14:21:19;;;;;;;0.00;0.00;;;14.90;99.90;;;;;;5060177;28;20120;-89
2021/05/11 14:23:45;;;;;;;0.00;0.00;;;14.70;99.90;;;;;;5062600;28;20036;-89
2021/05/11 14:26:14;;;;;;;0.20;0.20;;;14.50;99.90;;;;;;5064884;28;20532;-90
2021/05/11 14:28:40;;;;;;;0.20;0.20;;;14.60;99.90;;;;;;5060990;28;20040;-89
2021/05/11 14:31:06;;;;;;;0.37;0.37;;;14.30;99.90;;;;;;5087059;28;20021;-89
2021/05/11 14:33:32;;;;;;;0.00;0.00;;;14.50;99.90;;;;;;5080216;28;20055;-89
2021/05/11 14:35:57;;;;;;;0.10;0.10;;;14.60;99.90;;;;;;5073286;28;20400;-89
2021/05/11 14:38:23;;;;;;;0.23;0.23;;;14.80;99.90;;;;;;5067955;28;20051;-89
2021/05/11 14:40:49;;;;;;;1.40;0.77;;;14.00;99.90;;;;;;5082456;28;20020;-89
2021/05/11 14:43:16;;;;;;;0.63;0.63;;;13.40;99.90;;;;;;5075044;28;20021;-90
2021/05/11 14:45:42;;;;;;;0.30;0.30;;;13.10;99.90;;;;;;5064804;28;20020;-90
2021/05/11 14:48:09;;;;;;;0.10;0.10;;;13.10;99.90;;;;;;5059340;28;20029;-89
2021/05/11 14:50:34;;;;;;;0.00;0.00;;;13.10;99.90;;;;;;5069469;28;20008;-89
2021/05/11 14:53:00;;;;;;;0.10;0.10;;;12.90;99.90;;;;;;5065370;28;20028;-90
2021/05/11 14:55:27;;;;;;;0.00;0.00;;;13.10;99.90;;;;;;5069371;28;20057;-88
2021/05/11 14:57:56;;;;;;;0.30;0.30;;;13.30;99.90;;;;;;5069297;28;20762;-89
2021/05/11 15:00:23;;;;;;;0.00;0.00;;;13.90;99.90;;;;;;5075417;28;20036;-89
2021/05/11 15:02:49;;;;;;;0.00;0.00;;;15.30;99.90;;;;;;5070832;28;20217;-89
2021/05/11 15:05:16;;;;;;;0.00;0.00;;;16.10;99.90;;;;;;5063363;28;20378;-89
2021/05/11 15:07:42;;;;;;;0.20;0.20;;;15.80;99.90;;;;;;5068222;28;20564;-89
2021/05/11 15:10:10;;;;;;;0.03;0.03;;;14.70;99.90;;;;;;5065763;28;20183;-89
2021/05/11 15:12:36;;;;;;;0.00;0.00;;;14.80;99.90;;;;;;5063649;28;20021;-90
2021/05/11 15:15:02;;;;;;;0.33;0.33;;;14.10;99.90;;;;;;5057760;28;20033;-90
2021/05/11 15:20:00;;;;;;;;;;;14.50;99.90;;;;;;5060308;28;20041;-90
2021/05/11 15:22:30;;;;;;;0.10;0.10;;;13.60;99.90;;;;;;5071034;28;19966;-89
2021/05/11 15:24:59;;;;;;;0.10;0.10;;;13.80;99.90;;;;;;5032778;28;20403;-89
2021/05/11 15:27:25;;;;;;;0.10;0.10;;;13.90;99.90;;;;;;5073678;28;20123;-91
2021/05/11 15:29:51;;;;;;;0.10;0.10;;;13.80;99.90;;;;;;5074954;28;20450;-89
2021/05/11 15:32:40;;;;;;;0.00;0.00;;;14.50;99.90;;;;;;5053545;28;20033;-90
2021/05/11 15:35:11;;;;;;;0.10;0.10;;;14.60;99.90;;;;;;5054060;28;20029;-90
2021/05/11 15:37:38;;;;;;;0.00;0.00;;;14.30;99.90;;;;;;5071943;28;20491;-89
2021/05/11 15:40:09;;;;;;;0.20;0.20;;;14.20;99.90;;;;;;5075294;28;20020;-89
2021/05/11 15:42:35;;;;;;;0.00;0.00;;;13.60;99.90;;;;;;5065378;28;20127;-87
2021/05/11 15:45:01;;;;;;;0.10;0.10;;;13.30;99.90;;;;;;5072628;28;20059;-88
2021/05/11 15:47:28;;;;;;;0.13;0.13;;;13.30;99.90;;;;;;5072219;28;20510;-88
2021/05/11 15:49:53;;;;;;;0.00;0.00;;;13.40;99.90;;;;;;5069843;28;20054;-87
2021/05/11 15:52:19;;;;;;;0.20;0.20;;;13.60;99.90;;;;;;5073834;28;20112;-88
2021/05/11 15:54:45;;;;;;;0.10;0.10;;;13.60;99.90;;;;;;5074904;28;20033;-87
2021/05/11 15:57:11;;;;;;;0.03;0.03;;;13.30;99.90;;;;;;5080718;28;20870;-87
2021/05/11 15:59:37;;;;;;;0.03;0.03;;;13.00;99.90;;;;;;5069080;28;20081;-86
2021/05/11 16:02:03;;;;;;;0.20;0.20;;;12.30;94.30;;;;;;5072865;28;20047;-86
2021/05/11 16:04:29;;;;;;;0.00;0.00;;;12.40;99.90;;;;;;5077589;28;20554;-87
2021/05/11 16:06:55;;;;;;;0.10;0.10;;;12.90;99.90;;;;;;5066222;28;20086;-88
2021/05/11 16:09:24;;;;;;;0.10;0.10;;;13.20;99.90;;;;;;5061998;28;20574;-88
2021/05/11 16:11:51;;;;;;;0.10;0.10;;;13.10;15.30;;;;;;5065921;28;20434;-87
2021/05/11 16:14:17;;;;;;;;;;;13.10;99.90;;;;;;5063843;28;20034;-88
2021/05/11 16:16:44;;;;;;;0.00;0.00;;;12.80;99.90;;;;;;5065129;28;19912;-87
2021/05/11 16:19:12;;;;;;;0.00;0.00;;;12.70;99.90;;;;;;5055747;28;20016;-86
2021/05/11 16:21:38;;;;;;;0.10;0.10;;;12.40;99.90;;;;;;5060277;28;20031;-87
2021/05/11 16:24:05;;;;;;;0.10;0.10;;;12.20;99.90;;;;;;5066489;28;20047;-87
2021/05/11 16:26:45;;;;;;;0.08;0.08;;;12.60;99.90;;;;;;5059960;28;20450;-88
2021/05/11 16:29:11;;;;;;;0.10;0.10;;;12.50;99.90;;;;;;5045257;28;20182;-86
2021/05/11 16:31:38;;;;;;;0.10;0.10;;;13.20;99.90;;;;;;5057153;28;20028;-88
2021/05/11 16:34:07;;;;;;;0.10;0.10;;;13.40;99.90;;;;;;5068594;28;20158;-88
2021/05/11 16:36:34;;;;;;;0.20;0.20;;;13.60;99.90;;;;;;5062753;28;20025;-86
2021/05/11 16:39:05;;;;;;;0.10;0.10;;;13.10;99.90;;;;;;5062096;28;20036;-87
2021/05/11 16:41:32;;;;;;;0.57;0.38;;;12.90;99.90;;;;;;5053568;28;20032;-86
2021/05/11 16:43:59;;;;;;;0.10;0.10;;;12.70;99.90;;;;;;5052338;28;20036;-89
2021/05/11 16:46:25;;;;;;;0.00;0.00;;;12.90;85.00;;;;;;5074715;28;20059;-87
2021/05/11 16:48:51;;;;;;;0.00;0.00;;;12.70;99.90;;;;;;5062514;28;20040;-86
2021/05/11 16:51:17;;;;;;;0.10;0.10;;;12.60;18.80;;;;;;5069546;28;20020;-88
2021/05/11 16:53:43;;;;;;;0.08;0.08;;;12.40;99.90;;;;;;5073680;28;20028;-89
2021/05/11 16:56:10;;;;;;;0.10;0.10;;;12.30;99.90;;;;;;5054504;28;20025;-84
2021/05/11 16:58:36;;;;;;;8.52;1.33;;;12.40;99.90;;;;;;5058455;28;20027;-88
2021/05/11 17:01:07;;;;;;;0.00;0.00;;;12.30;99.90;;;;;;5064748;28;20828;-88
2021/05/11 17:03:33;;;;;;;0.55;0.30;;;12.30;99.90;;;;;;5060314;28;20089;-85
2021/05/11 17:05:59;;;;;;;0.05;0.05;;;12.40;99.90;;;;;;5059286;28;20115;-86
2021/05/11 17:08:24;;;;;;;0.10;0.10;;;12.40;99.90;;;;;;5077712;28;20075;-87
2021/05/11 17:10:51;;;;;;;0.00;0.00;;;12.30;99.90;;;;;;5071921;28;20087;-88
2021/05/11 17:13:16;;;;;;;0.10;0.10;;;12.40;99.90;;;;;;5065572;28;20043;-87
2021/05/11 17:15:43;;;;;;;2.50;0.25;;;12.30;99.90;;;;;;5068361;28;20028;-87
2021/05/11 17:18:10;;;;;;;0.10;0.10;;;12.20;99.90;;;;;;5065152;28;20062;-87
2021/05/11 17:20:37;;;;;;;2.00;0.90;;;12.10;99.90;;;;;;5066722;28;20028;-86
2021/05/11 17:23:08;;;;;;;0.20;0.20;;;12.20;99.90;;;;;;5073277;28;20052;-86
2021/05/11 17:25:34;;;;;;;0.00;0.00;;;12.20;99.90;;;;;;5071397;28;20029;-86
2021/05/11 17:28:01;;;;;;;0.00;0.00;;;12.40;99.90;;;;;;5063299;28;20032;-86